Time;durP1;ratioP1;P1;durP2;ratioP2;P2;SDS_P1;SDS_P2;PMS_P1;PMS_P2;Temp;Humidity;BMP_temperature;BMP_pressure;BME280_temperature;BME280_humidity;BME280_pressure;Samples;Min_cycle;Max_cycle;Signal;HPM_P1;HPM_P2
2023/01/07 00:01:32;;;;;;;9.02;3.85;;;9.80;88.90;;;;;;5042628;28;20137;-60
2023/01/07 00:04:07;;;;;;;5.53;2.85;;;9.90;89.00;;;;;;5050840;28;20049;-61
2023/01/07 00:06:41;;;;;;;6.13;2.70;;;9.90;89.00;;;;;;5047728;28;20056;-59
2023/01/07 00:09:12;;;;;;;8.05;2.58;;;9.90;89.00;;;;;;5049794;28;20056;-60
2023/01/07 00:11:41;;;;;;;5.10;2.50;;;9.80;89.00;;;;;;5050844;28;20098;-62
2023/01/07 00:14:10;;;;;;;5.30;2.88;;;9.90;89.00;;;;;;5045677;28;20452;-60
2023/01/07 00:16:44;;;;;;;6.05;2.58;;;9.90;89.10;;;;;;5048825;28;20140;-61
2023/01/07 00:19:13;;;;;;;5.05;2.13;;;9.90;89.10;;;;;;5052519;28;20686;-59
2023/01/07 00:21:41;;;;;;;5.55;2.60;;;9.90;89.20;;;;;;5048235;28;20056;-60
2023/01/07 00:24:10;;;;;;;4.78;2.20;;;9.80;89.20;;;;;;5044676;28;20147;-60
2023/01/07 00:26:39;;;;;;;4.90;2.10;;;9.90;89.20;;;;;;5039337;28;20049;-60
2023/01/07 00:29:07;;;;;;;3.83;2.10;;;9.80;89.30;;;;;;5040414;28;20055;-61
2023/01/07 00:31:36;;;;;;;4.43;2.25;;;9.80;89.30;;;;;;5040697;28;20052;-61
2023/01/07 00:34:08;;;;;;;4.32;1.80;;;9.80;89.40;;;;;;5043069;28;20056;-60
2023/01/07 00:36:41;;;;;;;3.60;1.58;;;9.80;89.40;;;;;;5041115;28;20056;-59
2023/01/07 00:39:11;;;;;;;3.13;1.42;;;9.80;89.50;;;;;;5038501;28;20071;-61
2023/01/07 00:41:38;;;;;;;3.88;1.67;;;9.80;89.60;;;;;;5042038;28;20045;-60
2023/01/07 00:44:06;;;;;;;3.80;1.40;;;9.80;89.60;;;;;;5041569;28;20076;-60
2023/01/07 00:46:33;;;;;;;3.33;1.52;;;9.80;89.70;;;;;;5043137;28;20075;-61
2023/01/07 00:49:00;;;;;;;2.85;1.48;;;9.80;89.70;;;;;;5052015;28;20128;-60
2023/01/07 00:51:29;;;;;;;2.90;1.58;;;9.80;89.70;;;;;;5062284;28;20127;-60
2023/01/07 00:53:56;;;;;;;3.17;1.42;;;9.80;89.80;;;;;;5052817;28;20070;-59
2023/01/07 00:56:23;;;;;;;5.20;1.58;;;9.80;89.80;;;;;;5053477;28;20127;-59
2023/01/07 00:58:50;;;;;;;2.72;1.30;;;9.80;89.80;;;;;;5052306;28;20507;-59
2023/01/07 01:01:17;;;;;;;2.55;1.23;;;9.80;89.90;;;;;;5063963;28;20068;-62
2023/01/07 01:03:45;;;;;;;2.70;1.05;;;9.70;89.90;;;;;;5048569;28;20046;-63
2023/01/07 01:06:15;;;;;;;2.63;1.13;;;9.70;89.90;;;;;;5046358;28;20107;-61
2023/01/07 01:08:45;;;;;;;2.10;1.23;;;9.70;89.90;;;;;;5050045;28;20128;-62
2023/01/07 01:11:13;;;;;;;1.55;0.90;;;9.70;90.00;;;;;;5054555;28;20601;-62
2023/01/07 01:13:41;;;;;;;1.58;0.82;;;9.70;90.00;;;;;;5051939;28;20833;-62
2023/01/07 01:16:10;;;;;;;1.30;0.80;;;9.70;90.00;;;;;;5059182;28;20052;-62
2023/01/07 01:18:37;;;;;;;1.58;0.80;;;9.70;90.10;;;;;;5043683;28;20075;-62
2023/01/07 01:21:05;;;;;;;1.65;0.80;;;9.70;90.10;;;;;;5052590;28;20076;-67
2023/01/07 01:23:32;;;;;;;4.45;1.25;;;9.70;90.10;;;;;;5053124;28;20470;-68
2023/01/07 01:26:04;;;;;;;1.98;0.77;;;9.70;90.00;;;;;;5047982;28;20046;-67
2023/01/07 01:28:31;;;;;;;2.53;0.70;;;9.70;90.10;;;;;;5071297;28;20115;-66
2023/01/07 01:30:58;;;;;;;1.67;0.88;;;9.70;90.10;;;;;;5044799;28;20051;-65
2023/01/07 01:33:30;;;;;;;3.50;0.70;;;9.70;90.10;;;;;;5065574;28;20514;-68
2023/01/07 01:35:58;;;;;;;2.72;1.00;;;9.70;90.20;;;;;;5052120;28;20051;-67
2023/01/07 01:38:24;;;;;;;1.10;0.60;;;9.70;89.90;;;;;;5051262;28;20152;-67
2023/01/07 01:40:51;;;;;;;3.95;0.80;;;9.70;90.10;;;;;;5052930;28;20513;-65
2023/01/07 01:43:29;;;;;;;2.30;0.90;;;9.60;90.20;;;;;;5050384;28;20740;-67
2023/01/07 01:45:57;;;;;;;1.90;0.70;;;9.70;90.10;;;;;;5056688;28;20117;-60
2023/01/07 01:48:24;;;;;;;1.75;0.70;;;9.70;90.10;;;;;;5067921;28;20051;-61
2023/01/07 01:50:52;;;;;;;1.48;0.50;;;9.70;90.20;;;;;;5048473;28;20040;-57
2023/01/07 01:53:23;;;;;;;1.40;0.60;;;9.60;90.10;;;;;;5047824;28;20053;-60
2023/01/07 01:55:55;;;;;;;1.63;0.68;;;9.70;90.00;;;;;;5050559;28;20103;-60
2023/01/07 01:58:28;;;;;;;3.55;0.95;;;9.70;89.80;;;;;;5051553;28;20101;-59
2023/01/07 02:00:57;;;;;;;1.73;0.85;;;9.70;90.00;;;;;;5033181;28;20587;-60
2023/01/07 02:03:27;;;;;;;1.33;0.70;;;9.70;90.00;;;;;;5052190;28;20053;-60
2023/01/07 02:05:54;;;;;;;1.40;0.73;;;9.70;89.90;;;;;;5045206;28;20053;-60
2023/01/07 02:08:22;;;;;;;1.90;0.73;;;9.70;89.80;;;;;;5051692;28;20048;-61
2023/01/07 02:11:01;;;;;;;2.03;0.70;;;9.60;89.90;;;;;;5047137;28;20057;-59
2023/01/07 02:13:43;;;;;;;1.50;0.85;;;9.60;89.80;;;;;;5044848;28;20048;-61
2023/01/07 02:16:18;;;;;;;1.83;0.90;;;9.70;89.70;;;;;;5046295;28;20050;-62
2023/01/07 02:18:59;;;;;;;1.85;0.60;;;9.70;89.80;;;;;;5040484;28;20041;-61
2023/01/07 02:21:39;;;;;;;1.33;0.60;;;9.70;89.80;;;;;;5037885;28;20132;-60
2023/01/07 02:24:31;;;;;;;1.17;0.52;;;9.70;89.70;;;;;;5039501;28;20057;-60
2023/01/07 02:27:13;;;;;;;1.58;0.75;;;9.70;89.70;;;;;;5048692;28;20056;-60
2023/01/07 02:30:19;;;;;;;1.52;0.63;;;9.60;89.70;;;;;;5044098;28;20045;-59
2023/01/07 02:33:12;;;;;;;3.10;0.70;;;9.70;89.50;;;;;;5047691;28;20052;-60
2023/01/07 02:36:19;;;;;;;1.95;0.73;;;9.70;89.50;;;;;;5038643;28;20052;-59
2023/01/07 02:38:59;;;;;;;2.72;0.80;;;9.70;89.30;;;;;;5049169;28;20052;-60
2023/01/07 02:41:36;;;;;;;1.83;0.75;;;9.70;89.20;;;;;;5045867;28;20670;-60
2023/01/07 02:44:07;;;;;;;2.22;0.93;;;9.70;89.20;;;;;;5048017;28;20963;-61
2023/01/07 02:46:42;;;;;;;1.73;0.80;;;9.70;89.30;;;;;;5046047;28;20393;-58
2023/01/07 02:49:14;;;;;;;2.55;1.00;;;9.70;89.30;;;;;;5073748;28;20053;-59
2023/01/07 02:51:42;;;;;;;1.92;0.93;;;9.70;89.40;;;;;;5050611;28;20055;-69
2023/01/07 02:54:12;;;;;;;3.08;1.00;;;9.60;89.50;;;;;;5046096;28;20057;-67
2023/01/07 02:56:51;;;;;;;1.60;0.80;;;9.60;89.60;;;;;;5045187;28;20064;-68
2023/01/07 02:59:56;;;;;;;2.22;1.00;;;9.60;89.60;;;;;;5052226;28;20712;-68
2023/01/07 03:02:47;;;;;;;1.70;0.85;;;9.60;89.60;;;;;;5058302;28;20045;-67
2023/01/07 03:05:23;;;;;;;;;;;9.60;89.60;;;;;;5048443;28;20048;-69
2023/01/07 03:08:02;;;;;;;1.90;0.82;;;9.60;89.70;;;;;;5048113;28;20359;-68
2023/01/07 03:10:40;;;;;;;2.47;1.10;;;9.60;89.70;;;;;;5045231;28;20929;-66
2023/01/07 03:13:11;;;;;;;1.83;0.80;;;9.60;89.80;;;;;;5045711;28;20056;-67
2023/01/07 03:15:44;;;;;;;2.92;1.08;;;9.50;89.80;;;;;;5046288;28;20107;-59
2023/01/07 03:18:15;;;;;;;2.13;0.95;;;9.60;89.80;;;;;;5053121;28;20064;-61
2023/01/07 03:20:47;;;;;;;2.28;1.08;;;9.60;89.90;;;;;;5058808;28;20459;-59
2023/01/07 03:23:17;;;;;;;1.83;0.90;;;9.60;89.90;;;;;;5037080;28;20037;-59
2023/01/07 03:25:48;;;;;;;1.58;0.73;;;9.60;89.90;;;;;;5036565;28;20488;-58
2023/01/07 03:28:18;;;;;;;3.17;1.00;;;9.60;89.90;;;;;;5039714;28;20049;-57
2023/01/07 03:30:46;;;;;;;;;;;9.60;89.80;;;;;;5037105;28;20052;-60
2023/01/07 03:33:17;;;;;;;2.35;1.08;;;9.60;89.80;;;;;;5041641;28;20421;-62
2023/01/07 03:35:50;;;;;;;2.03;1.05;;;9.50;89.90;;;;;;5051329;28;20049;-68
2023/01/07 03:38:20;;;;;;;3.13;1.45;;;9.50;89.90;;;;;;5037792;28;20057;-67
2023/01/07 03:40:47;;;;;;;2.20;1.20;;;9.50;89.90;;;;;;5051713;28;20392;-68
2023/01/07 03:43:17;;;;;;;2.50;1.00;;;9.50;90.00;;;;;;5053550;28;20653;-69
2023/01/07 03:45:45;;;;;;;2.47;1.00;;;9.50;90.00;;;;;;5039179;28;21004;-67
2023/01/07 03:48:12;;;;;;;3.53;0.80;;;9.60;90.00;;;;;;5041337;28;20056;-68
2023/01/07 03:50:39;;;;;;;1.85;0.90;;;9.50;90.00;;;;;;5039424;28;20052;-58
2023/01/07 03:53:08;;;;;;;1.70;1.00;;;9.50;90.00;;;;;;5040657;28;20046;-58
2023/01/07 03:55:37;;;;;;;;;;;9.50;90.00;;;;;;5039422;28;20133;-64
2023/01/07 03:58:04;;;;;;;2.40;1.00;;;9.50;90.00;;;;;;5029859;28;20012;-64
2023/01/07 04:00:31;;;;;;;3.05;1.00;;;9.50;90.00;;;;;;5037292;28;20415;-65
2023/01/07 04:03:08;;;;;;;1.48;0.80;;;9.50;90.10;;;;;;5036419;28;20127;-64
2023/01/07 04:05:39;;;;;;;1.45;0.77;;;9.50;90.00;;;;;;5037535;28;20056;-62
2023/01/07 04:08:07;;;;;;;1.52;0.68;;;9.50;90.00;;;;;;5033463;28;20049;-61
2023/01/07 04:10:38;;;;;;;1.67;0.77;;;9.50;90.00;;;;;;5035351;28;20480;-62
2023/01/07 04:13:04;;;;;;;1.63;0.60;;;9.60;90.00;;;;;;5039032;28;20182;-61
2023/01/07 04:15:32;;;;;;;1.08;0.60;;;9.50;90.00;;;;;;5037115;28;20083;-65
2023/01/07 04:17:59;;;;;;;3.25;0.77;;;9.60;90.00;;;;;;5040251;28;20053;-65
2023/01/07 04:20:26;;;;;;;2.83;0.60;;;9.50;90.00;;;;;;5040858;28;20052;-60
2023/01/07 04:22:54;;;;;;;0.93;0.50;;;9.50;90.00;;;;;;5039925;28;20059;-60
2023/01/07 04:25:22;;;;;;;2.30;0.60;;;9.50;90.00;;;;;;5036979;28;20080;-67
2023/01/07 04:27:50;;;;;;;2.20;0.50;;;9.50;90.00;;;;;;5037911;28;20068;-67
2023/01/07 04:30:17;;;;;;;1.40;0.75;;;9.50;90.00;;;;;;5040319;28;20045;-67
2023/01/07 04:32:44;;;;;;;0.93;0.40;;;9.60;90.00;;;;;;5041559;28;20075;-68
2023/01/07 04:35:11;;;;;;;1.08;0.57;;;9.50;90.00;;;;;;5040637;28;20037;-67
2023/01/07 04:37:38;;;;;;;2.63;0.70;;;9.50;90.00;;;;;;5039750;28;20100;-66
2023/01/07 04:40:07;;;;;;;1.85;0.60;;;9.50;90.10;;;;;;5042407;28;20107;-67
2023/01/07 04:42:37;;;;;;;2.08;0.60;;;9.50;90.10;;;;;;5045625;28;20049;-66
2023/01/07 04:45:08;;;;;;;0.90;0.50;;;9.50;90.10;;;;;;5041944;28;20052;-67
2023/01/07 04:47:35;;;;;;;1.65;0.63;;;9.50;90.00;;;;;;5047392;28;20052;-65
2023/01/07 04:50:02;;;;;;;0.90;0.50;;;9.50;90.00;;;;;;5043314;28;20407;-68
2023/01/07 04:52:32;;;;;;;1.25;0.60;;;9.50;90.00;;;;;;5056745;28;20051;-67
2023/01/07 04:54:59;;;;;;;2.47;1.08;;;9.50;90.00;;;;;;5049927;28;20056;-67
2023/01/07 04:57:26;;;;;;;1.65;0.60;;;9.50;90.00;;;;;;5052623;28;20077;-61
2023/01/07 04:59:55;;;;;;;1.67;0.70;;;9.40;90.00;;;;;;5052719;28;20433;-61
2023/01/07 05:02:22;;;;;;;1.27;0.63;;;9.40;90.00;;;;;;5062163;28;20068;-61
2023/01/07 05:04:49;;;;;;;1.50;0.80;;;9.50;90.00;;;;;;5043010;28;20123;-59
2023/01/07 05:07:18;;;;;;;1.48;0.60;;;9.50;90.00;;;;;;5047238;28;20046;-64
2023/01/07 05:09:45;;;;;;;1.65;0.80;;;9.50;90.00;;;;;;5042467;28;20048;-63
2023/01/07 05:12:13;;;;;;;1.48;0.60;;;9.40;90.10;;;;;;5038212;28;20077;-64
2023/01/07 05:14:41;;;;;;;1.45;0.68;;;9.40;90.00;;;;;;5038901;28;20049;-64
2023/01/07 05:17:10;;;;;;;1.35;0.60;;;9.50;90.10;;;;;;5052482;28;20049;-64
2023/01/07 05:19:38;;;;;;;1.58;0.70;;;9.40;90.00;;;;;;5036285;28;20617;-64
2023/01/07 05:22:06;;;;;;;1.77;0.60;;;9.40;90.00;;;;;;5038913;28;20060;-59
2023/01/07 05:24:37;;;;;;;1.45;0.57;;;9.40;90.00;;;;;;5040594;28;20076;-60
2023/01/07 05:27:04;;;;;;;2.75;0.60;;;9.40;90.00;;;;;;5042048;28;20059;-61
2023/01/07 05:29:31;;;;;;;1.38;0.60;;;9.40;90.00;;;;;;5039706;28;20495;-60
2023/01/07 05:31:58;;;;;;;1.15;0.60;;;9.40;90.10;;;;;;5036354;28;20072;-64
2023/01/07 05:34:27;;;;;;;1.52;0.73;;;9.40;90.10;;;;;;5053039;28;20114;-63
2023/01/07 05:36:54;;;;;;;1.73;0.80;;;9.40;90.10;;;;;;5036971;28;20680;-64
2023/01/07 05:39:21;;;;;;;2.35;0.80;;;9.40;90.00;;;;;;5042956;28;20439;-65
2023/01/07 05:41:48;;;;;;;2.25;0.70;;;9.40;90.00;;;;;;5032273;28;20052;-69
2023/01/07 05:44:16;;;;;;;1.33;0.60;;;9.40;90.00;;;;;;5050049;28;20057;-68
2023/01/07 05:46:43;;;;;;;2.78;0.63;;;9.40;90.10;;;;;;5038753;28;20049;-68
2023/01/07 05:49:10;;;;;;;2.20;0.70;;;9.40;90.10;;;;;;5039377;28;20041;-68
2023/01/07 05:51:38;;;;;;;2.30;0.65;;;9.40;90.00;;;;;;5039814;28;20415;-60
2023/01/07 05:54:06;;;;;;;0.95;0.57;;;9.40;90.00;;;;;;5036815;28;20052;-61
2023/01/07 05:56:33;;;;;;;1.75;0.52;;;9.40;90.00;;;;;;5040617;28;20069;-66
2023/01/07 05:58:59;;;;;;;2.40;0.80;;;9.40;90.00;;;;;;5037666;28;20038;-67
2023/01/07 06:01:26;;;;;;;0.82;0.60;;;9.40;90.00;;;;;;5039498;28;20053;-68
2023/01/07 06:03:53;;;;;;;0.77;0.50;;;9.40;90.00;;;;;;5039037;28;20053;-69
2023/01/07 06:06:20;;;;;;;3.10;0.80;;;9.30;90.00;;;;;;5038433;28;20045;-68
2023/01/07 06:08:49;;;;;;;0.85;0.47;;;9.30;90.00;;;;;;5040504;28;20056;-68
2023/01/07 06:11:15;;;;;;;2.55;0.60;;;9.40;90.10;;;;;;5039481;28;20053;-67
2023/01/07 06:13:42;;;;;;;1.33;0.52;;;9.30;90.10;;;;;;5038304;28;20068;-68
2023/01/07 06:16:10;;;;;;;1.73;0.75;;;9.30;90.10;;;;;;5039200;28;20052;-68
2023/01/07 06:18:37;;;;;;;1.70;0.68;;;9.30;90.20;;;;;;5036649;28;20052;-68
2023/01/07 06:21:04;;;;;;;2.53;0.65;;;9.30;90.20;;;;;;5036318;28;20045;-68
2023/01/07 06:23:31;;;;;;;2.63;1.13;;;9.30;90.20;;;;;;5037653;28;20064;-68
2023/01/07 06:25:59;;;;;;;2.67;0.90;;;9.30;90.30;;;;;;5037411;28;20512;-68
2023/01/07 06:28:26;;;;;;;2.15;0.80;;;9.30;90.30;;;;;;5037883;28;20132;-71
2023/01/07 06:30:53;;;;;;;2.03;0.70;;;9.30;90.30;;;;;;5036375;28;20045;-62
2023/01/07 06:33:20;;;;;;;2.72;0.82;;;9.30;90.30;;;;;;5036021;28;20049;-64
2023/01/07 06:35:47;;;;;;;1.95;0.57;;;9.30;90.30;;;;;;5038286;28;20046;-62
2023/01/07 06:38:14;;;;;;;2.28;0.65;;;9.30;90.30;;;;;;5032079;28;20136;-61
2023/01/07 06:40:41;;;;;;;1.15;0.68;;;9.30;90.20;;;;;;5033854;28;20045;-62
2023/01/07 06:43:09;;;;;;;1.35;0.68;;;9.30;90.20;;;;;;5035998;28;20049;-62
2023/01/07 06:45:36;;;;;;;2.25;0.90;;;9.30;90.30;;;;;;5037615;28;20037;-62
2023/01/07 06:48:03;;;;;;;1.60;0.82;;;9.30;90.20;;;;;;5038560;28;20044;-61
2023/01/07 06:50:30;;;;;;;3.63;1.20;;;9.30;90.20;;;;;;5038762;28;20052;-63
2023/01/07 06:52:57;;;;;;;1.83;0.90;;;9.30;90.20;;;;;;5037971;28;20056;-60
2023/01/07 06:55:23;;;;;;;1.67;0.77;;;9.30;90.20;;;;;;5038412;28;20049;-62
2023/01/07 06:57:50;;;;;;;3.33;1.30;;;9.30;90.20;;;;;;5038701;28;20072;-62
2023/01/07 07:00:19;;;;;;;1.90;0.93;;;9.30;90.20;;;;;;5038981;28;20095;-62
2023/01/07 07:02:46;;;;;;;1.92;0.90;;;9.30;90.20;;;;;;5034243;28;20049;-61
2023/01/07 07:05:13;;;;;;;2.20;1.20;;;9.30;90.20;;;;;;5036891;28;20046;-61
2023/01/07 07:07:41;;;;;;;3.10;1.35;;;9.20;90.20;;;;;;5037030;28;20051;-62
2023/01/07 07:10:09;;;;;;;3.33;1.40;;;9.30;90.30;;;;;;5041256;28;20056;-60
2023/01/07 07:12:37;;;;;;;5.32;1.58;;;9.20;90.30;;;;;;5046013;28;20060;-63
2023/01/07 07:15:04;;;;;;;3.28;1.23;;;9.20;90.30;;;;;;5041649;28;20045;-62
2023/01/07 07:17:32;;;;;;;2.88;1.27;;;9.20;90.40;;;;;;5044998;28;20049;-61
2023/01/07 07:19:59;;;;;;;2.58;1.10;;;9.20;90.30;;;;;;5044459;28;20068;-63
2023/01/07 07:22:26;;;;;;;2.47;1.00;;;9.20;90.30;;;;;;5048456;28;20863;-60
2023/01/07 07:24:53;;;;;;;4.88;1.52;;;9.30;90.30;;;;;;5046966;28;20072;-58
2023/01/07 07:27:20;;;;;;;3.78;1.20;;;9.20;90.30;;;;;;5043588;28;20425;-59
2023/01/07 07:29:47;;;;;;;3.72;1.20;;;9.20;90.30;;;;;;5047362;28;20503;-58
2023/01/07 07:32:14;;;;;;;4.07;1.60;;;9.30;90.30;;;;;;5044916;28;20044;-59
2023/01/07 07:34:42;;;;;;;4.53;1.70;;;9.20;90.30;;;;;;5048843;28;20057;-60
2023/01/07 07:37:09;;;;;;;4.45;1.67;;;9.20;90.30;;;;;;5042953;28;20060;-59
2023/01/07 07:39:35;;;;;;;3.03;1.20;;;9.20;90.30;;;;;;5042241;28;20048;-63
2023/01/07 07:42:03;;;;;;;5.00;1.60;;;9.20;90.30;;;;;;5047108;28;20044;-63
2023/01/07 07:44:31;;;;;;;3.53;1.20;;;9.20;90.30;;;;;;5046789;28;20044;-59
2023/01/07 07:46:58;;;;;;;5.20;1.48;;;9.20;90.30;;;;;;5041532;28;20045;-59
2023/01/07 07:49:25;;;;;;;2.90;1.63;;;9.20;90.40;;;;;;5048236;28;20051;-60
2023/01/07 07:51:53;;;;;;;3.47;1.48;;;9.20;90.40;;;;;;5047735;28;20040;-60
2023/01/07 07:54:20;;;;;;;4.75;1.58;;;9.20;90.40;;;;;;5048852;28;20052;-66
2023/01/07 07:56:47;;;;;;;3.55;1.48;;;9.20;90.40;;;;;;5039516;28;20051;-67
2023/01/07 07:59:14;;;;;;;4.72;1.70;;;9.30;90.30;;;;;;5054851;28;20047;-67
2023/01/07 08:01:41;;;;;;;3.67;1.90;;;9.30;90.20;;;;;;5050611;28;20057;-67
2023/01/07 08:04:09;;;;;;;5.20;2.03;;;9.30;90.30;;;;;;5051954;28;20044;-67
2023/01/07 08:06:36;;;;;;;5.65;2.58;;;9.20;90.30;;;;;;5050536;28;20051;-65
2023/01/07 08:09:04;;;;;;;6.32;3.17;;;9.30;90.20;;;;;;5043728;28;20047;-67
2023/01/07 08:11:31;;;;;;;4.55;2.13;;;9.30;90.10;;;;;;5040966;28;20045;-68
2023/01/07 08:13:59;;;;;;;5.45;2.95;;;9.30;90.00;;;;;;5041998;28;20044;-68
2023/01/07 08:16:27;;;;;;;5.22;2.97;;;9.30;90.10;;;;;;5039968;28;20049;-67
2023/01/07 08:18:54;;;;;;;5.85;2.30;;;9.30;90.20;;;;;;5036907;28;20056;-66
2023/01/07 08:21:21;;;;;;;5.25;2.40;;;9.30;90.30;;;;;;5038057;28;20056;-68
2023/01/07 08:23:48;;;;;;;3.88;2.22;;;9.30;90.20;;;;;;5037894;28;20076;-68
2023/01/07 08:26:16;;;;;;;5.80;3.17;;;9.30;90.20;;;;;;5036545;28;20055;-66
2023/01/07 08:28:43;;;;;;;6.32;3.40;;;9.30;90.20;;;;;;5034406;28;20049;-67
2023/01/07 08:31:10;;;;;;;7.68;3.45;;;9.30;90.20;;;;;;5036484;28;20045;-67
2023/01/07 08:33:38;;;;;;;7.72;4.00;;;9.30;90.20;;;;;;5036722;28;20048;-67
2023/01/07 08:36:08;;;;;;;7.10;3.60;;;9.30;90.30;;;;;;5037649;28;20118;-67
2023/01/07 08:38:40;;;;;;;8.05;3.95;;;9.30;90.20;;;;;;5036960;28;20150;-67
2023/01/07 08:41:09;;;;;;;9.40;3.97;;;9.30;90.30;;;;;;5035736;28;20057;-60
2023/01/07 08:43:37;;;;;;;9.45;4.22;;;9.30;90.20;;;;;;5039630;28;20053;-60
2023/01/07 08:46:04;;;;;;;7.60;4.28;;;9.30;90.20;;;;;;5039789;28;20127;-59
2023/01/07 08:48:31;;;;;;;9.48;4.07;;;9.30;90.20;;;;;;5040824;28;20572;-60
2023/01/07 08:50:58;;;;;;;9.38;4.72;;;9.40;90.20;;;;;;5040195;28;20053;-61
2023/01/07 08:53:25;;;;;;;9.23;4.43;;;9.40;90.20;;;;;;5042009;28;20056;-62
2023/01/07 08:55:52;;;;;;;7.95;4.70;;;9.40;90.10;;;;;;5041510;28;20045;-63
2023/01/07 08:58:19;;;;;;;9.80;4.90;;;9.40;90.20;;;;;;5042292;28;20184;-61
2023/01/07 09:00:48;;;;;;;9.15;5.13;;;9.40;90.20;;;;;;5041196;28;20063;-68
2023/01/07 09:03:15;;;;;;;8.90;4.45;;;9.40;90.20;;;;;;5040946;28;20052;-68
2023/01/07 09:05:42;;;;;;;9.20;4.22;;;9.40;90.00;;;;;;5041264;28;20475;-67
2023/01/07 09:08:08;;;;;;;8.38;3.92;;;9.40;90.10;;;;;;5042406;28;20053;-68
2023/01/07 09:10:35;;;;;;;7.85;3.65;;;9.40;90.00;;;;;;5041835;28;20049;-62
2023/01/07 09:13:02;;;;;;;6.20;2.85;;;9.50;89.90;;;;;;5037161;28;20048;-64
2023/01/07 09:15:29;;;;;;;4.95;2.47;;;9.40;89.70;;;;;;5038398;28;20140;-69
2023/01/07 09:17:57;;;;;;;5.10;2.55;;;9.50;89.80;;;;;;5039615;28;20098;-67
2023/01/07 09:20:24;;;;;;;5.65;2.50;;;9.50;89.70;;;;;;5040354;28;20057;-69
2023/01/07 09:22:51;;;;;;;4.05;1.90;;;9.50;89.60;;;;;;5039650;28;20406;-67
2023/01/07 09:25:18;;;;;;;4.05;1.75;;;9.50;89.60;;;;;;5040858;28;20080;-68
2023/01/07 09:27:45;;;;;;;3.10;1.35;;;9.50;89.50;;;;;;5038428;28;20052;-72
2023/01/07 09:30:13;;;;;;;3.63;1.20;;;9.50;89.30;;;;;;5038369;28;20056;-67
2023/01/07 09:32:39;;;;;;;3.05;1.42;;;9.60;89.10;;;;;;5039046;28;20488;-68
2023/01/07 09:35:09;;;;;;;2.28;0.90;;;9.50;89.10;;;;;;5039519;28;20045;-68
2023/01/07 09:37:38;;;;;;;3.53;1.10;;;9.50;89.00;;;;;;5039776;28;20045;-65
2023/01/07 09:40:08;;;;;;;1.17;0.68;;;9.60;89.00;;;;;;5034964;28;20042;-70
2023/01/07 09:42:43;;;;;;;2.20;0.73;;;9.60;88.90;;;;;;5038577;28;20060;-66
2023/01/07 09:45:16;;;;;;;3.30;1.13;;;9.60;88.80;;;;;;5036372;28;20052;-68
2023/01/07 09:47:46;;;;;;;1.42;0.73;;;9.60;88.70;;;;;;5035054;28;20049;-68
2023/01/07 09:50:23;;;;;;;1.40;0.60;;;9.60;88.50;;;;;;5039101;28;20052;-68
2023/01/07 09:52:52;;;;;;;1.52;0.57;;;9.60;88.50;;;;;;5036788;28;20053;-67
2023/01/07 09:55:23;;;;;;;1.90;0.70;;;9.60;88.30;;;;;;5039604;28;20580;-68
2023/01/07 09:57:51;;;;;;;1.65;0.60;;;9.60;88.20;;;;;;5037567;28;20045;-67
2023/01/07 10:00:22;;;;;;;1.25;0.50;;;9.70;87.80;;;;;;5040234;28;20056;-67
2023/01/07 10:03:10;;;;;;;1.58;0.63;;;9.60;87.70;;;;;;5038557;28;20045;-69
2023/01/07 10:05:45;;;;;;;2.03;0.70;;;9.70;87.70;;;;;;5039662;28;20420;-68
2023/01/07 10:08:22;;;;;;;1.88;0.60;;;9.70;87.60;;;;;;5037158;28;20061;-68
2023/01/07 10:10:55;;;;;;;1.77;0.73;;;9.70;87.50;;;;;;5038957;28;20614;-67
2023/01/07 10:13:53;;;;;;;1.65;0.70;;;9.60;87.60;;;;;;5037111;28;20072;-67
2023/01/07 10:16:24;;;;;;;2.20;0.73;;;9.70;86.70;;;;;;5035887;28;20060;-64
2023/01/07 10:19:00;;;;;;;1.85;0.80;;;9.70;86.90;;;;;;5034388;28;20057;-65
2023/01/07 10:21:38;;;;;;;1.88;0.70;;;9.70;86.80;;;;;;5038064;28;20061;-60
2023/01/07 10:24:12;;;;;;;1.50;0.73;;;9.70;86.50;;;;;;5047928;28;20510;-59
2023/01/07 10:26:42;;;;;;;1.55;1.10;;;9.70;86.30;;;;;;5049697;28;20049;-62
2023/01/07 10:29:12;;;;;;;;;;;9.70;86.20;;;;;;5044730;28;20109;-62
2023/01/07 10:31:39;;;;;;;1.57;0.60;;;9.70;86.30;;;;;;5044919;28;19921;-63
2023/01/07 10:34:14;;;;;;;3.05;0.80;;;9.70;86.20;;;;;;5047282;28;20463;-61
2023/01/07 10:36:55;;;;;;;1.05;0.65;;;9.70;86.40;;;;;;5050490;28;20056;-60
2023/01/07 10:39:29;;;;;;;1.42;0.73;;;9.70;86.50;;;;;;5046576;28;20657;-60
2023/01/07 10:42:06;;;;;;;1.30;0.70;;;9.70;86.50;;;;;;5048091;28;20506;-60
2023/01/07 10:44:55;;;;;;;3.45;1.00;;;9.80;86.40;;;;;;5048577;28;20147;-60
2023/01/07 10:47:33;;;;;;;3.60;1.07;;;9.70;86.40;;;;;;5057962;28;20463;-60
2023/01/07 10:50:26;;;;;;;2.40;0.90;;;9.80;86.40;;;;;;5055894;28;20455;-60
2023/01/07 10:53:03;;;;;;;2.45;0.98;;;9.70;86.40;;;;;;5047216;28;20057;-59
2023/01/07 10:55:47;;;;;;;1.58;0.80;;;9.80;86.30;;;;;;5049155;28;20419;-68
2023/01/07 10:58:14;;;;;;;2.60;0.93;;;9.70;86.40;;;;;;5044318;28;20452;-69
2023/01/07 11:00:41;;;;;;;2.95;0.77;;;9.80;86.40;;;;;;5051645;28;20045;-61
2023/01/07 11:03:18;;;;;;;1.90;0.90;;;9.80;86.20;;;;;;5045563;28;20060;-61
2023/01/07 11:05:46;;;;;;;3.10;1.02;;;9.80;86.20;;;;;;5048839;28;20067;-68
2023/01/07 11:08:25;;;;;;;2.03;0.80;;;9.80;86.10;;;;;;5054485;28;20110;-70
2023/01/07 11:10:52;;;;;;;2.17;0.90;;;9.80;86.00;;;;;;5050131;28;20068;-69
2023/01/07 11:13:24;;;;;;;2.22;1.00;;;9.80;86.00;;;;;;5052319;28;20053;-68
2023/01/07 11:15:55;;;;;;;2.75;1.08;;;9.80;85.90;;;;;;5048126;28;20071;-68
2023/01/07 11:18:25;;;;;;;2.97;1.45;;;9.80;85.60;;;;;;5044558;28;20060;-67
2023/01/07 11:20:57;;;;;;;3.28;1.48;;;9.80;85.20;;;;;;5041877;28;20049;-67
2023/01/07 11:23:34;;;;;;;3.08;1.30;;;9.80;85.70;;;;;;5044572;28;20049;-67
2023/01/07 11:26:13;;;;;;;3.35;1.23;;;9.80;85.20;;;;;;5041587;28;20509;-67
2023/01/07 11:28:47;;;;;;;3.42;1.50;;;9.80;84.90;;;;;;5042049;28;20045;-69
2023/01/07 11:31:14;;;;;;;3.65;1.80;;;9.90;85.20;;;;;;5043023;28;20042;-67
2023/01/07 11:33:46;;;;;;;2.63;1.30;;;9.80;84.80;;;;;;5039925;28;20044;-68
2023/01/07 11:36:13;;;;;;;5.15;2.28;;;9.90;84.90;;;;;;5040108;28;20566;-68
2023/01/07 11:38:42;;;;;;;3.83;1.70;;;9.90;85.00;;;;;;5040050;28;20040;-68
2023/01/07 11:41:22;;;;;;;4.68;1.85;;;9.90;85.00;;;;;;5039381;28;20057;-61
2023/01/07 11:43:50;;;;;;;5.82;1.90;;;9.90;84.60;;;;;;5043117;28;20072;-61
2023/01/07 11:46:19;;;;;;;3.00;1.50;;;9.90;84.60;;;;;;5041696;28;20054;-68
2023/01/07 11:48:51;;;;;;;2.80;1.60;;;10.00;84.40;;;;;;5036030;28;20045;-68
2023/01/07 11:51:20;;;;;;;4.95;1.50;;;10.00;84.50;;;;;;5040386;28;20045;-61
2023/01/07 11:53:55;;;;;;;3.88;1.50;;;10.00;84.20;;;;;;5041195;28;20443;-60
2023/01/07 11:56:28;;;;;;;2.97;1.50;;;10.10;83.80;;;;;;5042336;28;20055;-62
2023/01/07 11:59:16;;;;;;;3.40;1.50;;;10.10;83.80;;;;;;5033626;28;20602;-63
2023/01/07 12:01:45;;;;;;;3.50;1.60;;;10.10;83.80;;;;;;5039601;28;20047;-64
2023/01/07 12:04:19;;;;;;;3.58;1.45;;;10.10;83.60;;;;;;5038427;28;20567;-65
2023/01/07 12:06:47;;;;;;;3.85;1.55;;;10.20;83.50;;;;;;5038542;28;20057;-65
2023/01/07 12:09:24;;;;;;;3.97;1.58;;;10.20;83.60;;;;;;5039197;28;20044;-65
2023/01/07 12:11:53;;;;;;;4.35;1.80;;;10.20;83.40;;;;;;5038479;28;20412;-65
2023/01/07 12:14:27;;;;;;;4.85;1.80;;;10.20;83.30;;;;;;5040031;28;20076;-65
2023/01/07 12:16:56;;;;;;;4.93;2.60;;;10.30;83.30;;;;;;5036563;28;20041;-68
2023/01/07 12:19:44;;;;;;;5.85;2.75;;;10.30;83.10;;;;;;5039171;28;22792;-68
2023/01/07 12:22:23;;;;;;;5.32;2.38;;;10.30;83.30;;;;;;5049055;28;20052;-61
2023/01/07 12:25:17;;;;;;;6.18;3.33;;;10.30;82.90;;;;;;5048394;28;20045;-61
2023/01/07 12:27:55;;;;;;;6.18;2.92;;;10.30;82.80;;;;;;5052839;28;20045;-60
2023/01/07 12:30:53;;;;;;;6.18;2.58;;;10.30;83.10;;;;;;5047024;28;20044;-63
2023/01/07 12:33:34;;;;;;;9.40;4.50;;;10.40;82.80;;;;;;5044062;28;20049;-63
2023/01/07 12:36:08;;;;;;;8.27;5.10;;;10.30;82.90;;;;;;5041070;28;20045;-62
2023/01/07 12:38:41;;;;;;;10.00;4.90;;;10.40;83.20;;;;;;5039962;28;20054;-62
2023/01/07 12:41:18;;;;;;;8.35;4.20;;;10.30;83.10;;;;;;5049523;28;20045;-60
2023/01/07 12:43:56;;;;;;;7.68;3.40;;;10.40;82.70;;;;;;5040313;28;20056;-60
2023/01/07 12:46:27;;;;;;;6.30;2.85;;;10.40;82.40;;;;;;5042720;28;20045;-62
2023/01/07 12:49:03;;;;;;;6.30;3.00;;;10.40;82.60;;;;;;5041752;28;20045;-61
2023/01/07 12:51:36;;;;;;;4.60;2.33;;;10.40;82.60;;;;;;5042179;28;20046;-58
2023/01/07 12:54:10;;;;;;;4.95;2.45;;;10.40;82.40;;;;;;5052402;28;20049;-58
2023/01/07 12:56:44;;;;;;;4.10;1.92;;;10.40;82.30;;;;;;5052710;28;20085;-62
2023/01/07 12:59:17;;;;;;;5.13;2.20;;;10.50;82.30;;;;;;5046598;28;20074;-61
2023/01/07 13:01:49;;;;;;;4.47;2.38;;;10.40;82.10;;;;;;5051051;28;20049;-58
2023/01/07 13:04:28;;;;;;;5.35;2.60;;;10.50;82.30;;;;;;5052276;28;20051;-58
2023/01/07 13:07:00;;;;;;;6.13;2.67;;;10.40;82.20;;;;;;5053474;28;20466;-68
2023/01/07 13:09:34;;;;;;;4.63;2.30;;;10.40;82.30;;;;;;5062105;28;20048;-66
2023/01/07 13:14:58;;;;;;;4.53;1.48;;;10.40;82.30;;;;;;5052594;28;20053;-61
2023/01/07 13:17:27;;;;;;;4.38;1.90;;;10.40;82.20;;;;;;5053104;28;20041;-64
2023/01/07 13:19:55;;;;;;;4.97;2.33;;;10.40;82.20;;;;;;5046526;28;20057;-65